Sumise Maru No.32 — JD3832 — position and weather

sailwx.info

Track history (hours):
 
Tides and Currents Weather Stations Pressure Air Temp Water Temp Dewpoint Dewpoint Depression Visibility Wind Speed Wind Dir Waves Ship Positions

Sumise Maru No.32

Last reported at 2017-Oct-20 01:00 UTC. Time now 2017-Oct-20 01:22 UTC.
Position N 34°37' E 135°02'.

Length 78 m; draft 4.3 m.

Type: Cargo ship. MMSI: 431006221.

Date/timePositionNaut miles runAvg speedWind from/ knotsBaromVisibWave heightAir tempDewpointWater temp
2017-Oct-20 01:00N 34°37' E 135°02'713.3
2017-Oct-20 00:30N 34°36' E 135°10'613.1
2017-Oct-20 00:01N 34°37' E 135°18'0 0.2
2017-Oct-19 23:26N 34°37' E 135°18'0 0.0
2017-Oct-19 22:56N 34°37' E 135°18'0 0.0
2017-Oct-19 22:26N 34°37' E 135°18'0 0.0
2017-Oct-19 21:56N 34°37' E 135°18'0 0.0
2017-Oct-19 21:26N 34°37' E 135°18'0 0.0
2017-Oct-19 20:56N 34°37' E 135°18'0 0.0
2017-Oct-19 20:26N 34°37' E 135°18'0 0.0
2017-Oct-19 19:50N 34°37' E 135°18'0 0.0
2017-Oct-19 19:26N 34°37' E 135°18'0 0.0
2017-Oct-19 18:56N 34°37' E 135°18'0 0.0
2017-Oct-19 18:20N 34°37' E 135°18'0 0.0
2017-Oct-19 17:56N 34°37' E 135°18'0 0.0
2017-Oct-19 17:26N 34°37' E 135°18'0 0.0
2017-Oct-19 16:56N 34°37' E 135°18'0 0.0
2017-Oct-19 16:26N 34°37' E 135°18'0 0.0
2017-Oct-19 15:56N 34°37' E 135°18'0 0.0
2017-Oct-19 15:26N 34°37' E 135°18'0 0.1
2017-Oct-19 14:57N 34°37' E 135°18'410.2
2017-Oct-19 14:30N 34°38' E 135°24'3 5.3
2017-Oct-19 13:55N 34°40' E 135°27'0 0.0
2017-Oct-19 13:19N 34°40' E 135°27'0 0.0
2017-Oct-19 12:49N 34°40' E 135°27'0 0.0
2017-Oct-19 12:25N 34°40' E 135°27'0 0.0
2017-Oct-19 10:55N 34°40' E 135°27'0 0.0
2017-Oct-19 10:25N 34°40' E 135°27'0 0.1
2017-Oct-19 08:31N 34°40' E 135°27'0 1.5
2017-Oct-19 08:30N 34°40' E 135°27'0 0.6
2017-Oct-19 08:00N 34°40' E 135°26'1 1.6
2017-Oct-19 07:30N 34°39' E 135°26'3 6.3
2017-Oct-19 07:00N 34°38' E 135°22'4 7.0
2017-Oct-19 06:26N 34°35' E 135°19'0 0.1
2017-Oct-19 05:50N 34°35' E 135°19'0 0.0
2017-Oct-19 05:20N 34°35' E 135°19'0 0.0
2017-Oct-19 04:50N 34°35' E 135°19'0 0.0
2017-Oct-19 04:26N 34°35' E 135°19'0 0.0
2017-Oct-19 03:44N 34°35' E 135°19'0 0.0
2017-Oct-19 03:20N 34°35' E 135°19'0 0.0
2017-Oct-19 02:56N 34°35' E 135°19'0 0.0
2017-Oct-19 02:26N 34°35' E 135°19'0 0.1
2017-Oct-19 01:50N 34°35' E 135°18'0 0.0
2017-Oct-19 01:20N 34°35' E 135°18'0 0.0
2017-Oct-19 00:56N 34°35' E 135°18'0 0.0
2017-Oct-19 00:20N 34°35' E 135°18'0 0.0
2017-Oct-18 23:50N 34°35' E 135°18'0 0.1
2017-Oct-18 23:26N 34°35' E 135°19'0 0.1
2017-Oct-18 22:56N 34°35' E 135°18'0 0.0
2017-Oct-18 22:26N 34°35' E 135°18'0 0.0
2017-Oct-18 21:56N 34°35' E 135°18'0 0.0
2017-Oct-18 21:26N 34°35' E 135°18'0 0.0
2017-Oct-18 20:50N 34°35' E 135°18'0 0.0
2017-Oct-18 20:26N 34°35' E 135°18'0 0.1
2017-Oct-18 19:44N 34°35' E 135°19'0 0.2
2017-Oct-18 19:26N 34°35' E 135°18'0 0.0
2017-Oct-18 18:56N 34°35' E 135°18'0 0.0
2017-Oct-18 18:26N 34°35' E 135°18'0 0.1
2017-Oct-18 17:56N 34°35' E 135°19'0 0.0
2017-Oct-18 17:26N 34°35' E 135°19'0 0.0
2017-Oct-18 16:56N 34°35' E 135°19'0 0.0
2017-Oct-18 16:26N 34°35' E 135°19'0 0.0
2017-Oct-18 15:56N 34°35' E 135°19'0 0.0
2017-Oct-18 15:26N 34°35' E 135°19'0 0.0
2017-Oct-18 14:56N 34°35' E 135°19'0 0.0
2017-Oct-18 13:56N 34°35' E 135°19'0 0.0
2017-Oct-18 13:20N 34°35' E 135°19'0 0.0
2017-Oct-18 12:56N 34°35' E 135°19'0 0.0
2017-Oct-18 12:20N 34°35' E 135°19'0 0.0
2017-Oct-18 11:56N 34°35' E 135°19'0 0.0
2017-Oct-18 11:20N 34°35' E 135°19'0 0.0
2017-Oct-18 10:38N 34°35' E 135°19'0 0.0
2017-Oct-18 10:08N 34°35' E 135°19'0 0.0
2017-Oct-18 09:38N 34°35' E 135°19'0 0.0
2017-Oct-18 09:26N 34°35' E 135°19'0 0.0
2017-Oct-18 08:50N 34°35' E 135°19'0 0.0
2017-Oct-18 08:20N 34°35' E 135°19'0 0.0
2017-Oct-18 07:56N 34°35' E 135°19'0 0.0
2017-Oct-18 07:26N 34°35' E 135°19'0 0.0
2017-Oct-18 06:44N 34°35' E 135°19'0 0.0
2017-Oct-18 06:26N 34°35' E 135°19'0 0.0
2017-Oct-18 05:44N 34°35' E 135°19'0 1.7
2017-Oct-18 05:30N 34°35' E 135°18'611.6
2017-Oct-18 05:00N 34°30' E 135°14'611.4
2017-Oct-18 04:30N 34°26' E 135°10'611.1
2017-Oct-18 03:55N 34°20' E 135°05'510.2
2017-Oct-18 03:25N 34°16' E 135°03'410.3
2017-Oct-18 03:01N 34°14' E 135°08'0 0.1
2017-Oct-18 02:29N 34°14' E 135°08'0 0.0
2017-Oct-18 01:59N 34°14' E 135°08'0 0.0
2017-Oct-18 01:29N 34°14' E 135°08'0 0.0
2017-Oct-18 00:59N 34°14' E 135°08'0 0.0
2017-Oct-18 00:29N 34°14' E 135°08'0 0.0
2017-Oct-17 23:59N 34°14' E 135°08'0 0.0
2017-Oct-17 23:29N 34°14' E 135°08'0 0.2
2017-Oct-17 22:57N 34°14' E 135°08'2 4.7
2017-Oct-17 22:28N 34°15' E 135°05'0 0.1
2017-Oct-17 21:58N 34°15' E 135°05'0 0.1
2017-Oct-17 21:28N 34°15' E 135°05'0 0.0
2017-Oct-17 20:49N 34°15' E 135°05'0 0.0
2017-Oct-17 20:28N 34°15' E 135°05'0 0.0
2017-Oct-17 19:58N 34°15' E 135°05'0 0.0
2017-Oct-17 19:28N 34°15' E 135°05'0 0.1
2017-Oct-17 18:58N 34°15' E 135°05'0 0.0
2017-Oct-17 18:28N 34°15' E 135°05'0 0.1
2017-Oct-17 17:58N 34°15' E 135°05'0 0.0
2017-Oct-17 17:28N 34°15' E 135°05'0 0.0
2017-Oct-17 16:58N 34°15' E 135°05'0 0.0
2017-Oct-17 16:28N 34°15' E 135°05'0 0.1
2017-Oct-17 15:58N 34°15' E 135°05'0 0.1
2017-Oct-17 15:28N 34°15' E 135°05'0 0.0
2017-Oct-17 14:58N 34°15' E 135°05'0 0.1
2017-Oct-17 14:28N 34°15' E 135°05'0 0.0
2017-Oct-17 13:52N 34°15' E 135°05'0 0.0
2017-Oct-17 13:25N 34°15' E 135°05'0 0.0
2017-Oct-17 12:43N 34°15' E 135°05'0 0.0
2017-Oct-17 12:19N 34°15' E 135°05'0 0.2
2017-Oct-17 11:58N 34°15' E 135°05'0 0.0
2017-Oct-17 11:28N 34°15' E 135°05'0 0.1
2017-Oct-17 10:58N 34°15' E 135°05'0 0.0
2017-Oct-17 10:28N 34°15' E 135°05'0 0.0
2017-Oct-17 09:58N 34°15' E 135°05'0 0.0
2017-Oct-17 09:28N 34°15' E 135°05'0 0.0
2017-Oct-17 08:58N 34°15' E 135°05'0 0.0
2017-Oct-17 08:28N 34°15' E 135°05'0 0.0
2017-Oct-17 07:58N 34°15' E 135°05'0 0.1
2017-Oct-17 07:28N 34°15' E 135°05'0 0.0
2017-Oct-17 06:58N 34°15' E 135°05'0 0.0
2017-Oct-17 06:25N 34°15' E 135°05'0 0.0
2017-Oct-17 05:58N 34°15' E 135°05'0 0.0
2017-Oct-17 05:28N 34°15' E 135°05'0 0.0
2017-Oct-17 04:58N 34°15' E 135°05'0 0.0
2017-Oct-17 04:28N 34°15' E 135°05'0 0.1
2017-Oct-17 03:58N 34°15' E 135°05'0 0.0
2017-Oct-17 03:16N 34°15' E 135°05'0 0.0
2017-Oct-17 02:58N 34°15' E 135°05'0 0.0
2017-Oct-17 02:28N 34°15' E 135°05'0 0.0
2017-Oct-17 01:58N 34°15' E 135°05'0 0.0
2017-Oct-17 01:28N 34°15' E 135°05'0 0.0
2017-Oct-17 00:58N 34°15' E 135°05'0 0.0
2017-Oct-17 00:28N 34°15' E 135°05'0 0.0
2017-Oct-16 23:55N 34°15' E 135°05'0 0.0
2017-Oct-16 23:22N 34°15' E 135°05'0 0.1
2017-Oct-16 22:58N 34°15' E 135°05'0 0.0
2017-Oct-16 22:28N 34°15' E 135°05'0 0.0
2017-Oct-16 21:58N 34°15' E 135°05'0 0.1
2017-Oct-16 21:28N 34°15' E 135°05'1 1.7
2017-Oct-16 21:00N 34°14' E 135°05'612.7
2017-Oct-16 20:30N 34°08' E 135°03'712.3
2017-Oct-16 19:58N 34°02' E 135°02'22311.2
2017-Oct-16 00:03N 34°51' E 139°25'113.7
2017-Oct-15 23:58N 34°50' E 139°26'612.9
2017-Oct-15 23:28N 34°50' E 139°34'  
Track history (hours):
 
Tides and Currents Weather Stations Pressure Air Temp Water Temp Dewpoint Dewpoint Depression Visibility Wind Speed Wind Dir Waves Ship Positions

Sumise Maru No.32

Last reported at 2017-Oct-20 01:00 UTC. Time now 2017-Oct-20 01:22 UTC.
Position N 34°37' E 135°02'.

Length 78 m; draft 4.3 m.

Type: Cargo ship. MMSI: 431006221.

Date/timePositionNaut miles runAvg speedWind from/ knotsBaromVisibWave heightAir tempDewpointWater temp
2017-Oct-20 01:00N 34°37' E 135°02'713.3
2017-Oct-20 00:30N 34°36' E 135°10'613.1
2017-Oct-20 00:01N 34°37' E 135°18'0 0.2
2017-Oct-19 23:26N 34°37' E 135°18'0 0.0
2017-Oct-19 22:56N 34°37' E 135°18'0 0.0
2017-Oct-19 22:26N 34°37' E 135°18'0 0.0
2017-Oct-19 21:56N 34°37' E 135°18'0 0.0
2017-Oct-19 21:26N 34°37' E 135°18'0 0.0
2017-Oct-19 20:56N 34°37' E 135°18'0 0.0
2017-Oct-19 20:26N 34°37' E 135°18'0 0.0
2017-Oct-19 19:50N 34°37' E 135°18'0 0.0
2017-Oct-19 19:26N 34°37' E 135°18'0 0.0
2017-Oct-19 18:56N 34°37' E 135°18'0 0.0
2017-Oct-19 18:20N 34°37' E 135°18'0 0.0
2017-Oct-19 17:56N 34°37' E 135°18'0 0.0
2017-Oct-19 17:26N 34°37' E 135°18'0 0.0
2017-Oct-19 16:56N 34°37' E 135°18'0 0.0
2017-Oct-19 16:26N 34°37' E 135°18'0 0.0
2017-Oct-19 15:56N 34°37' E 135°18'0 0.0
2017-Oct-19 15:26N 34°37' E 135°18'0 0.1
2017-Oct-19 14:57N 34°37' E 135°18'410.2
2017-Oct-19 14:30N 34°38' E 135°24'3 5.3
2017-Oct-19 13:55N 34°40' E 135°27'0 0.0
2017-Oct-19 13:19N 34°40' E 135°27'0 0.0
2017-Oct-19 12:49N 34°40' E 135°27'0 0.0
2017-Oct-19 12:25N 34°40' E 135°27'0 0.0
2017-Oct-19 10:55N 34°40' E 135°27'0 0.0
2017-Oct-19 10:25N 34°40' E 135°27'0 0.1
2017-Oct-19 08:31N 34°40' E 135°27'0 1.5
2017-Oct-19 08:30N 34°40' E 135°27'0 0.6
2017-Oct-19 08:00N 34°40' E 135°26'1 1.6
2017-Oct-19 07:30N 34°39' E 135°26'3 6.3
2017-Oct-19 07:00N 34°38' E 135°22'4 7.0
2017-Oct-19 06:26N 34°35' E 135°19'0 0.1
2017-Oct-19 05:50N 34°35' E 135°19'0 0.0
2017-Oct-19 05:20N 34°35' E 135°19'0 0.0
2017-Oct-19 04:50N 34°35' E 135°19'0 0.0
2017-Oct-19 04:26N 34°35' E 135°19'0 0.0
2017-Oct-19 03:44N 34°35' E 135°19'0 0.0
2017-Oct-19 03:20N 34°35' E 135°19'0 0.0
2017-Oct-19 02:56N 34°35' E 135°19'0 0.0
2017-Oct-19 02:26N 34°35' E 135°19'0 0.1
2017-Oct-19 01:50N 34°35' E 135°18'0 0.0
2017-Oct-19 01:20N 34°35' E 135°18'0 0.0
2017-Oct-19 00:56N 34°35' E 135°18'0 0.0
2017-Oct-19 00:20N 34°35' E 135°18'0 0.0
2017-Oct-18 23:50N 34°35' E 135°18'0 0.1
2017-Oct-18 23:26N 34°35' E 135°19'0 0.1
2017-Oct-18 22:56N 34°35' E 135°18'0 0.0
2017-Oct-18 22:26N 34°35' E 135°18'0 0.0
2017-Oct-18 21:56N 34°35' E 135°18'0 0.0
2017-Oct-18 21:26N 34°35' E 135°18'0 0.0
2017-Oct-18 20:50N 34°35' E 135°18'0 0.0
2017-Oct-18 20:26N 34°35' E 135°18'0 0.1
2017-Oct-18 19:44N 34°35' E 135°19'0 0.2
2017-Oct-18 19:26N 34°35' E 135°18'0 0.0
2017-Oct-18 18:56N 34°35' E 135°18'0 0.0
2017-Oct-18 18:26N 34°35' E 135°18'0 0.1
2017-Oct-18 17:56N 34°35' E 135°19'0 0.0
2017-Oct-18 17:26N 34°35' E 135°19'0 0.0
2017-Oct-18 16:56N 34°35' E 135°19'0 0.0
2017-Oct-18 16:26N 34°35' E 135°19'0 0.0
2017-Oct-18 15:56N 34°35' E 135°19'0 0.0
2017-Oct-18 15:26N 34°35' E 135°19'0 0.0
2017-Oct-18 14:56N 34°35' E 135°19'0 0.0
2017-Oct-18 13:56N 34°35' E 135°19'0 0.0
2017-Oct-18 13:20N 34°35' E 135°19'0 0.0
2017-Oct-18 12:56N 34°35' E 135°19'0 0.0
2017-Oct-18 12:20N 34°35' E 135°19'0 0.0
2017-Oct-18 11:56N 34°35' E 135°19'0 0.0
2017-Oct-18 11:20N 34°35' E 135°19'0 0.0
2017-Oct-18 10:38N 34°35' E 135°19'0 0.0
2017-Oct-18 10:08N 34°35' E 135°19'0 0.0
2017-Oct-18 09:38N 34°35' E 135°19'0 0.0
2017-Oct-18 09:26N 34°35' E 135°19'0 0.0
2017-Oct-18 08:50N 34°35' E 135°19'0 0.0
2017-Oct-18 08:20N 34°35' E 135°19'0 0.0
2017-Oct-18 07:56N 34°35' E 135°19'0 0.0
2017-Oct-18 07:26N 34°35' E 135°19'0 0.0
2017-Oct-18 06:44N 34°35' E 135°19'0 0.0
2017-Oct-18 06:26N 34°35' E 135°19'0 0.0
2017-Oct-18 05:44N 34°35' E 135°19'0 1.7
2017-Oct-18 05:30N 34°35' E 135°18'611.6
2017-Oct-18 05:00N 34°30' E 135°14'611.4
2017-Oct-18 04:30N 34°26' E 135°10'611.1
2017-Oct-18 03:55N 34°20' E 135°05'510.2
2017-Oct-18 03:25N 34°16' E 135°03'410.3
2017-Oct-18 03:01N 34°14' E 135°08'0 0.1
2017-Oct-18 02:29N 34°14' E 135°08'0 0.0
2017-Oct-18 01:59N 34°14' E 135°08'0 0.0
2017-Oct-18 01:29N 34°14' E 135°08'0 0.0
2017-Oct-18 00:59N 34°14' E 135°08'0 0.0
2017-Oct-18 00:29N 34°14' E 135°08'0 0.0
2017-Oct-17 23:59N 34°14' E 135°08'0 0.0
2017-Oct-17 23:29N 34°14' E 135°08'0 0.2
2017-Oct-17 22:57N 34°14' E 135°08'2 4.7
2017-Oct-17 22:28N 34°15' E 135°05'0 0.1
2017-Oct-17 21:58N 34°15' E 135°05'0 0.1
2017-Oct-17 21:28N 34°15' E 135°05'0 0.0
2017-Oct-17 20:49N 34°15' E 135°05'0 0.0
2017-Oct-17 20:28N 34°15' E 135°05'0 0.0
2017-Oct-17 19:58N 34°15' E 135°05'0 0.0
2017-Oct-17 19:28N 34°15' E 135°05'0 0.1
2017-Oct-17 18:58N 34°15' E 135°05'0 0.0
2017-Oct-17 18:28N 34°15' E 135°05'0 0.1
2017-Oct-17 17:58N 34°15' E 135°05'0 0.0
2017-Oct-17 17:28N 34°15' E 135°05'0 0.0
2017-Oct-17 16:58N 34°15' E 135°05'0 0.0
2017-Oct-17 16:28N 34°15' E 135°05'0 0.1
2017-Oct-17 15:58N 34°15' E 135°05'0 0.1
2017-Oct-17 15:28N 34°15' E 135°05'0 0.0
2017-Oct-17 14:58N 34°15' E 135°05'0 0.1
2017-Oct-17 14:28N 34°15' E 135°05'0 0.0
2017-Oct-17 13:52N 34°15' E 135°05'0 0.0
2017-Oct-17 13:25N 34°15' E 135°05'0 0.0
2017-Oct-17 12:43N 34°15' E 135°05'0 0.0
2017-Oct-17 12:19N 34°15' E 135°05'0 0.2
2017-Oct-17 11:58N 34°15' E 135°05'0 0.0
2017-Oct-17 11:28N 34°15' E 135°05'0 0.1
2017-Oct-17 10:58N 34°15' E 135°05'0 0.0
2017-Oct-17 10:28N 34°15' E 135°05'0 0.0
2017-Oct-17 09:58N 34°15' E 135°05'0 0.0
2017-Oct-17 09:28N 34°15' E 135°05'0 0.0
2017-Oct-17 08:58N 34°15' E 135°05'0 0.0
2017-Oct-17 08:28N 34°15' E 135°05'0 0.0
2017-Oct-17 07:58N 34°15' E 135°05'0 0.1
2017-Oct-17 07:28N 34°15' E 135°05'0 0.0
2017-Oct-17 06:58N 34°15' E 135°05'0 0.0
2017-Oct-17 06:25N 34°15' E 135°05'0 0.0
2017-Oct-17 05:58N 34°15' E 135°05'0 0.0
2017-Oct-17 05:28N 34°15' E 135°05'0 0.0
2017-Oct-17 04:58N 34°15' E 135°05'0 0.0
2017-Oct-17 04:28N 34°15' E 135°05'0 0.1
2017-Oct-17 03:58N 34°15' E 135°05'0 0.0
2017-Oct-17 03:16N 34°15' E 135°05'0 0.0
2017-Oct-17 02:58N 34°15' E 135°05'0 0.0
2017-Oct-17 02:28N 34°15' E 135°05'0 0.0
2017-Oct-17 01:58N 34°15' E 135°05'0 0.0
2017-Oct-17 01:28N 34°15' E 135°05'0 0.0
2017-Oct-17 00:58N 34°15' E 135°05'0 0.0
2017-Oct-17 00:28N 34°15' E 135°05'0 0.0
2017-Oct-16 23:55N 34°15' E 135°05'0 0.0
2017-Oct-16 23:22N 34°15' E 135°05'0 0.1
2017-Oct-16 22:58N 34°15' E 135°05'0 0.0
2017-Oct-16 22:28N 34°15' E 135°05'0 0.0
2017-Oct-16 21:58N 34°15' E 135°05'0 0.1
2017-Oct-16 21:28N 34°15' E 135°05'1 1.7
2017-Oct-16 21:00N 34°14' E 135°05'612.7
2017-Oct-16 20:30N 34°08' E 135°03'712.3
2017-Oct-16 19:58N 34°02' E 135°02'22311.2
2017-Oct-16 00:03N 34°51' E 139°25'113.7
2017-Oct-15 23:58N 34°50' E 139°26'612.9
2017-Oct-15 23:28N 34°50' E 139°34'  

Dump ship's entire track history